TimeEST,TemperatureF,Dew PointF,Humidity,Sea Level PressureIn,VisibilityMPH,Wind Direction,Wind SpeedMPH,Gust SpeedMPH,PrecipitationIn,Events,Conditions,WindDirDegrees,DateUTC
12:53 AM,30.0,23.0,75,30.52,10.0,Calm,Calm,-,N/A,,Clear,0,2012-11-15 05:53:00
1:53 AM,28.9,23.0,78,30.53,10.0,Calm,Calm,-,N/A,,Clear,0,2012-11-15 06:53:00
2:53 AM,30.0,23.0,75,30.52,10.0,NNW,3.5,-,N/A,,Clear,340,2012-11-15 07:53:00
3:53 AM,28.0,23.0,81,30.52,10.0,NNW,4.6,-,N/A,,Clear,330,2012-11-15 08:53:00
4:53 AM,28.9,21.9,75,30.49,10.0,NNW,5.8,-,N/A,,Clear,340,2012-11-15 09:53:00
5:53 AM,28.0,21.9,78,30.51,10.0,NW,3.5,-,N/A,,Clear,320,2012-11-15 10:53:00
6:53 AM,28.0,21.9,78,30.51,10.0,North,4.6,-,N/A,,Clear,360,2012-11-15 11:53:00
7:53 AM,30.9,23.0,72,30.52,10.0,North,6.9,-,N/A,,Clear,350,2012-11-15 12:53:00
8:53 AM,34.0,23.0,64,30.51,10.0,North,10.4,-,N/A,,Clear,350,2012-11-15 13:53:00
9:53 AM,37.0,24.1,59,30.48,10.0,North,9.2,-,N/A,,Clear,350,2012-11-15 14:53:00
10:53 AM,39.9,24.1,53,30.47,10.0,NNE,8.1,-,N/A,,Clear,20,2012-11-15 15:53:00
11:53 AM,42.1,24.1,49,30.44,10.0,NNW,4.6,-,N/A,,Clear,330,2012-11-15 16:53:00
12:53 PM,43.0,23.0,45,30.40,10.0,North,5.8,-,N/A,,Clear,350,2012-11-15 17:53:00
1:53 PM,44.1,23.0,43,30.39,10.0,North,6.9,-,N/A,,Clear,10,2012-11-15 18:53:00
2:53 PM,44.1,23.0,43,30.39,10.0,NNW,3.5,-,N/A,,Clear,340,2012-11-15 19:53:00
3:53 PM,43.0,23.0,45,30.39,10.0,NNE,3.5,-,N/A,,Clear,30,2012-11-15 20:53:00
4:53 PM,42.1,23.0,47,30.38,10.0,Calm,Calm,-,N/A,,Clear,0,2012-11-15 21:53:00
5:53 PM,37.9,26.1,62,30.38,10.0,Calm,Calm,-,N/A,,Clear,0,2012-11-15 22:53:00
6:53 PM,37.0,28.9,73,30.38,10.0,SE,3.5,-,N/A,,Clear,140,2012-11-15 23:53:00
7:53 PM,37.0,28.9,73,30.38,10.0,Calm,Calm,-,N/A,,Clear,0,2012-11-16 00:53:00
8:53 PM,34.0,28.9,82,30.38,10.0,Calm,Calm,-,N/A,,Clear,0,2012-11-16 01:53:00
9:53 PM,34.0,28.9,82,30.37,10.0,Calm,Calm,-,N/A,,Clear,0,2012-11-16 02:53:00
10:53 PM,33.1,28.0,82,30.36,10.0,Calm,Calm,-,N/A,,Clear,0,2012-11-16 03:53:00
11:53 PM,32.0,27.0,82,30.35,10.0,Calm,Calm,-,N/A,,Clear,0,2012-11-16 04:53:00